sensor_id;sensor_type;location;lat;lon;timestamp;temperature;humidity
4578;DHT22;2301;47.354;8.528;2023-08-06T00:01:29;19.90;85.70
4578;DHT22;2301;47.354;8.528;2023-08-06T00:03:56;19.90;87.00
4578;DHT22;2301;47.354;8.528;2023-08-06T00:06:24;19.90;86.50
4578;DHT22;2301;47.354;8.528;2023-08-06T00:08:51;19.80;86.70
4578;DHT22;2301;47.354;8.528;2023-08-06T00:11:18;19.80;85.50
4578;DHT22;2301;47.354;8.528;2023-08-06T00:13:45;19.80;86.50
4578;DHT22;2301;47.354;8.528;2023-08-06T00:16:13;19.80;87.30
4578;DHT22;2301;47.354;8.528;2023-08-06T00:18:40;19.80;85.70
4578;DHT22;2301;47.354;8.528;2023-08-06T00:21:07;19.70;84.90
4578;DHT22;2301;47.354;8.528;2023-08-06T00:23:34;19.70;84.70
4578;DHT22;2301;47.354;8.528;2023-08-06T00:26:01;19.70;86.10
4578;DHT22;2301;47.354;8.528;2023-08-06T00:28:28;19.70;84.40
4578;DHT22;2301;47.354;8.528;2023-08-06T00:30:55;19.70;83.70
4578;DHT22;2301;47.354;8.528;2023-08-06T00:33:24;19.60;83.10
4578;DHT22;2301;47.354;8.528;2023-08-06T00:35:51;19.60;83.30
4578;DHT22;2301;47.354;8.528;2023-08-06T00:38:18;19.50;82.10
4578;DHT22;2301;47.354;8.528;2023-08-06T00:40:45;19.40;82.60
4578;DHT22;2301;47.354;8.528;2023-08-06T00:43:12;19.40;83.10
4578;DHT22;2301;47.354;8.528;2023-08-06T00:45:39;19.40;83.00
4578;DHT22;2301;47.354;8.528;2023-08-06T00:48:06;19.40;83.00
4578;DHT22;2301;47.354;8.528;2023-08-06T00:50:34;19.40;83.40
4578;DHT22;2301;47.354;8.528;2023-08-06T00:53:02;19.30;79.60
4578;DHT22;2301;47.354;8.528;2023-08-06T00:55:29;19.30;81.00
4578;DHT22;2301;47.354;8.528;2023-08-06T00:57:56;19.20;81.40
4578;DHT22;2301;47.354;8.528;2023-08-06T01:00:25;19.20;80.50
4578;DHT22;2301;47.354;8.528;2023-08-06T01:02:53;19.20;81.30
4578;DHT22;2301;47.354;8.528;2023-08-06T01:05:20;19.20;80.90
4578;DHT22;2301;47.354;8.528;2023-08-06T01:07:58;19.20;79.40
4578;DHT22;2301;47.354;8.528;2023-08-06T01:10:40;19.10;80.70
4578;DHT22;2301;47.354;8.528;2023-08-06T01:13:17;19.10;79.90
4578;DHT22;2301;47.354;8.528;2023-08-06T01:15:48;19.10;80.70
4578;DHT22;2301;47.354;8.528;2023-08-06T01:18:16;19.10;79.40
4578;DHT22;2301;47.354;8.528;2023-08-06T01:20:44;19.10;80.20
4578;DHT22;2301;47.354;8.528;2023-08-06T01:23:11;19.00;78.40
4578;DHT22;2301;47.354;8.528;2023-08-06T01:25:45;19.00;79.70
4578;DHT22;2301;47.354;8.528;2023-08-06T01:28:18;19.00;79.40
4578;DHT22;2301;47.354;8.528;2023-08-06T01:30:49;19.00;79.10
4578;DHT22;2301;47.354;8.528;2023-08-06T01:33:21;19.00;78.60
4578;DHT22;2301;47.354;8.528;2023-08-06T01:35:51;19.00;79.70
4578;DHT22;2301;47.354;8.528;2023-08-06T01:38:20;19.00;81.20
4578;DHT22;2301;47.354;8.528;2023-08-06T01:40:47;19.00;79.10
4578;DHT22;2301;47.354;8.528;2023-08-06T01:43:14;19.00;77.60
4578;DHT22;2301;47.354;8.528;2023-08-06T01:45:41;18.90;77.60
4578;DHT22;2301;47.354;8.528;2023-08-06T01:48:08;18.90;77.10
4578;DHT22;2301;47.354;8.528;2023-08-06T01:50:34;18.90;76.30
4578;DHT22;2301;47.354;8.528;2023-08-06T01:53:03;19.00;77.40
4578;DHT22;2301;47.354;8.528;2023-08-06T01:55:31;19.00;77.60
4578;DHT22;2301;47.354;8.528;2023-08-06T01:58:00;19.00;75.90
4578;DHT22;2301;47.354;8.528;2023-08-06T02:00:26;18.90;76.60
4578;DHT22;2301;47.354;8.528;2023-08-06T02:02:54;18.90;77.30
4578;DHT22;2301;47.354;8.528;2023-08-06T02:05:21;18.90;76.60
4578;DHT22;2301;47.354;8.528;2023-08-06T02:07:48;18.90;77.30
4578;DHT22;2301;47.354;8.528;2023-08-06T02:10:16;19.00;77.00
4578;DHT22;2301;47.354;8.528;2023-08-06T02:12:43;18.90;76.60
4578;DHT22;2301;47.354;8.528;2023-08-06T02:15:10;18.90;75.90
4578;DHT22;2301;47.354;8.528;2023-08-06T02:17:37;18.80;73.20
4578;DHT22;2301;47.354;8.528;2023-08-06T02:20:05;18.70;72.90
4578;DHT22;2301;47.354;8.528;2023-08-06T02:22:32;18.60;73.50
4578;DHT22;2301;47.354;8.528;2023-08-06T02:25:00;18.60;73.50
4578;DHT22;2301;47.354;8.528;2023-08-06T02:27:28;18.60;74.70
4578;DHT22;2301;47.354;8.528;2023-08-06T02:29:55;18.70;76.40
4578;DHT22;2301;47.354;8.528;2023-08-06T02:32:22;18.60;75.00
4578;DHT22;2301;47.354;8.528;2023-08-06T02:34:49;18.60;72.10
4578;DHT22;2301;47.354;8.528;2023-08-06T02:37:15;18.60;71.80
4578;DHT22;2301;47.354;8.528;2023-08-06T02:39:42;18.60;73.30
4578;DHT22;2301;47.354;8.528;2023-08-06T02:42:09;18.60;75.10
4578;DHT22;2301;47.354;8.528;2023-08-06T02:44:38;18.60;74.20
4578;DHT22;2301;47.354;8.528;2023-08-06T02:47:05;18.60;73.20
4578;DHT22;2301;47.354;8.528;2023-08-06T02:49:32;18.70;74.40
4578;DHT22;2301;47.354;8.528;2023-08-06T02:51:59;18.70;74.60
4578;DHT22;2301;47.354;8.528;2023-08-06T02:54:26;18.70;74.40
4578;DHT22;2301;47.354;8.528;2023-08-06T02:56:53;18.60;73.20
4578;DHT22;2301;47.354;8.528;2023-08-06T02:59:19;18.60;73.90
4578;DHT22;2301;47.354;8.528;2023-08-06T03:01:48;18.60;73.90
4578;DHT22;2301;47.354;8.528;2023-08-06T03:04:15;18.60;73.40
4578;DHT22;2301;47.354;8.528;2023-08-06T03:06:43;18.60;74.20
4578;DHT22;2301;47.354;8.528;2023-08-06T03:09:10;18.60;73.80
4578;DHT22;2301;47.354;8.528;2023-08-06T03:11:37;18.50;71.30
4578;DHT22;2301;47.354;8.528;2023-08-06T03:14:04;18.50;72.90
4578;DHT22;2301;47.354;8.528;2023-08-06T03:16:31;18.50;72.00
4578;DHT22;2301;47.354;8.528;2023-08-06T03:18:59;18.50;74.70
4578;DHT22;2301;47.354;8.528;2023-08-06T03:21:26;18.60;73.40
4578;DHT22;2301;47.354;8.528;2023-08-06T03:23:53;18.50;72.90
4578;DHT22;2301;47.354;8.528;2023-08-06T03:26:20;18.50;74.90
4578;DHT22;2301;47.354;8.528;2023-08-06T03:28:47;18.60;76.10
4578;DHT22;2301;47.354;8.528;2023-08-06T03:31:14;18.70;76.80
4578;DHT22;2301;47.354;8.528;2023-08-06T03:33:41;18.70;76.30
4578;DHT22;2301;47.354;8.528;2023-08-06T03:36:09;18.70;75.90
4578;DHT22;2301;47.354;8.528;2023-08-06T03:38:36;18.80;76.30
4578;DHT22;2301;47.354;8.528;2023-08-06T03:41:03;18.80;75.50
4578;DHT22;2301;47.354;8.528;2023-08-06T03:43:30;18.90;75.60
4578;DHT22;2301;47.354;8.528;2023-08-06T03:45:57;18.80;74.40
4578;DHT22;2301;47.354;8.528;2023-08-06T03:48:24;18.80;73.20
4578;DHT22;2301;47.354;8.528;2023-08-06T03:50:51;18.70;72.80
4578;DHT22;2301;47.354;8.528;2023-08-06T03:53:19;18.70;73.60
4578;DHT22;2301;47.354;8.528;2023-08-06T03:55:46;18.80;73.80
4578;DHT22;2301;47.354;8.528;2023-08-06T03:58:13;18.80;74.50
4578;DHT22;2301;47.354;8.528;2023-08-06T04:00:40;18.80;74.60
4578;DHT22;2301;47.354;8.528;2023-08-06T04:03:07;18.70;74.00
4578;DHT22;2301;47.354;8.528;2023-08-06T04:05:34;18.80;74.50
4578;DHT22;2301;47.354;8.528;2023-08-06T04:08:00;18.80;73.60
4578;DHT22;2301;47.354;8.528;2023-08-06T04:10:29;18.80;73.50
4578;DHT22;2301;47.354;8.528;2023-08-06T04:12:56;18.90;74.70
4578;DHT22;2301;47.354;8.528;2023-08-06T04:15:22;18.90;74.00
4578;DHT22;2301;47.354;8.528;2023-08-06T04:17:49;18.90;73.70
4578;DHT22;2301;47.354;8.528;2023-08-06T04:20:16;18.90;73.90
4578;DHT22;2301;47.354;8.528;2023-08-06T04:22:43;18.90;72.10
4578;DHT22;2301;47.354;8.528;2023-08-06T04:25:10;18.90;73.60
4578;DHT22;2301;47.354;8.528;2023-08-06T04:27:38;18.90;72.80
4578;DHT22;2301;47.354;8.528;2023-08-06T04:30:07;18.90;74.10
4578;DHT22;2301;47.354;8.528;2023-08-06T04:32:34;18.80;73.60
4578;DHT22;2301;47.354;8.528;2023-08-06T04:35:01;18.80;74.00
4578;DHT22;2301;47.354;8.528;2023-08-06T04:37:28;18.80;75.00
4578;DHT22;2301;47.354;8.528;2023-08-06T04:39:55;18.90;74.90
4578;DHT22;2301;47.354;8.528;2023-08-06T04:42:22;18.90;74.90
4578;DHT22;2301;47.354;8.528;2023-08-06T04:44:51;18.90;75.30
4578;DHT22;2301;47.354;8.528;2023-08-06T04:47:17;18.70;75.10
4578;DHT22;2301;47.354;8.528;2023-08-06T04:49:45;18.70;75.90
4578;DHT22;2301;47.354;8.528;2023-08-06T04:52:11;18.60;75.80
4578;DHT22;2301;47.354;8.528;2023-08-06T04:54:38;18.60;76.10
4578;DHT22;2301;47.354;8.528;2023-08-06T04:57:05;18.60;76.40
4578;DHT22;2301;47.354;8.528;2023-08-06T04:59:32;18.50;76.60
4578;DHT22;2301;47.354;8.528;2023-08-06T05:02:01;18.50;76.60
4578;DHT22;2301;47.354;8.528;2023-08-06T05:04:28;18.50;76.50
4578;DHT22;2301;47.354;8.528;2023-08-06T05:06:54;18.30;77.00
4578;DHT22;2301;47.354;8.528;2023-08-06T05:09:21;18.40;77.40
4578;DHT22;2301;47.354;8.528;2023-08-06T05:11:49;18.30;76.70
4578;DHT22;2301;47.354;8.528;2023-08-06T05:14:16;18.30;77.40
4578;DHT22;2301;47.354;8.528;2023-08-06T05:16:44;18.10;77.00
4578;DHT22;2301;47.354;8.528;2023-08-06T05:19:13;18.10;78.80
4578;DHT22;2301;47.354;8.528;2023-08-06T05:21:44;17.90;78.20
4578;DHT22;2301;47.354;8.528;2023-08-06T05:24:11;17.70;79.20
4578;DHT22;2301;47.354;8.528;2023-08-06T05:26:38;17.60;79.70
4578;DHT22;2301;47.354;8.528;2023-08-06T05:29:04;17.50;80.30
4578;DHT22;2301;47.354;8.528;2023-08-06T05:31:31;17.40;80.50
4578;DHT22;2301;47.354;8.528;2023-08-06T05:33:58;17.40;80.80
4578;DHT22;2301;47.354;8.528;2023-08-06T05:36:27;17.30;80.90
4578;DHT22;2301;47.354;8.528;2023-08-06T05:38:54;17.30;80.70
4578;DHT22;2301;47.354;8.528;2023-08-06T05:41:21;17.20;80.00
4578;DHT22;2301;47.354;8.528;2023-08-06T05:43:48;17.30;81.50
4578;DHT22;2301;47.354;8.528;2023-08-06T05:46:15;17.30;80.50
4578;DHT22;2301;47.354;8.528;2023-08-06T05:48:41;17.30;80.80
4578;DHT22;2301;47.354;8.528;2023-08-06T05:51:08;17.20;80.00
4578;DHT22;2301;47.354;8.528;2023-08-06T05:53:39;17.20;80.60
4578;DHT22;2301;47.354;8.528;2023-08-06T05:56:06;17.30;81.10
4578;DHT22;2301;47.354;8.528;2023-08-06T05:58:33;17.40;82.30
4578;DHT22;2301;47.354;8.528;2023-08-06T06:01:00;17.40;80.60
4578;DHT22;2301;47.354;8.528;2023-08-06T06:03:27;17.50;79.80
4578;DHT22;2301;47.354;8.528;2023-08-06T06:05:53;17.50;80.00
4578;DHT22;2301;47.354;8.528;2023-08-06T06:08:20;17.60;80.40
4578;DHT22;2301;47.354;8.528;2023-08-06T06:10:49;17.70;80.70
4578;DHT22;2301;47.354;8.528;2023-08-06T06:13:15;17.70;80.00
4578;DHT22;2301;47.354;8.528;2023-08-06T06:15:42;17.70;79.80
4578;DHT22;2301;47.354;8.528;2023-08-06T06:18:09;17.70;80.10
4578;DHT22;2301;47.354;8.528;2023-08-06T06:20:36;17.70;79.60
4578;DHT22;2301;47.354;8.528;2023-08-06T06:23:03;17.80;81.60
4578;DHT22;2301;47.354;8.528;2023-08-06T06:25:30;17.90;81.30
4578;DHT22;2301;47.354;8.528;2023-08-06T06:27:58;17.90;81.50
4578;DHT22;2301;47.354;8.528;2023-08-06T06:30:25;18.00;81.30
4578;DHT22;2301;47.354;8.528;2023-08-06T06:32:52;18.00;81.40
4578;DHT22;2301;47.354;8.528;2023-08-06T06:35:19;18.10;81.60
4578;DHT22;2301;47.354;8.528;2023-08-06T06:37:46;18.30;81.30
4578;DHT22;2301;47.354;8.528;2023-08-06T06:40:12;18.40;81.50
4578;DHT22;2301;47.354;8.528;2023-08-06T06:42:39;18.50;81.40
4578;DHT22;2301;47.354;8.528;2023-08-06T06:45:09;18.60;80.90
4578;DHT22;2301;47.354;8.528;2023-08-06T06:47:36;18.70;80.30
4578;DHT22;2301;47.354;8.528;2023-08-06T06:50:03;18.90;80.40
4578;DHT22;2301;47.354;8.528;2023-08-06T06:52:30;19.10;80.50
4578;DHT22;2301;47.354;8.528;2023-08-06T06:54:57;19.20;79.70
4578;DHT22;2301;47.354;8.528;2023-08-06T06:57:24;19.10;77.70
4578;DHT22;2301;47.354;8.528;2023-08-06T06:59:51;19.00;74.50
4578;DHT22;2301;47.354;8.528;2023-08-06T07:02:19;18.80;74.30
4578;DHT22;2301;47.354;8.528;2023-08-06T07:04:46;18.70;75.20
4578;DHT22;2301;47.354;8.528;2023-08-06T07:07:13;18.80;77.60
4578;DHT22;2301;47.354;8.528;2023-08-06T07:09:40;18.80;77.60
4578;DHT22;2301;47.354;8.528;2023-08-06T07:12:07;18.80;77.90
4578;DHT22;2301;47.354;8.528;2023-08-06T07:14:34;18.80;77.30
4578;DHT22;2301;47.354;8.528;2023-08-06T07:17:01;18.70;77.70
4578;DHT22;2301;47.354;8.528;2023-08-06T07:19:29;18.60;77.40
4578;DHT22;2301;47.354;8.528;2023-08-06T07:21:56;18.40;77.60
4578;DHT22;2301;47.354;8.528;2023-08-06T07:24:23;18.30;77.10
4578;DHT22;2301;47.354;8.528;2023-08-06T07:26:50;18.20;77.90
4578;DHT22;2301;47.354;8.528;2023-08-06T07:29:18;18.20;78.20
4578;DHT22;2301;47.354;8.528;2023-08-06T07:31:47;18.20;79.40
4578;DHT22;2301;47.354;8.528;2023-08-06T07:34:15;18.20;79.20
4578;DHT22;2301;47.354;8.528;2023-08-06T07:36:45;18.30;79.70
4578;DHT22;2301;47.354;8.528;2023-08-06T07:39:12;18.30;79.40
4578;DHT22;2301;47.354;8.528;2023-08-06T07:41:39;18.30;78.60
4578;DHT22;2301;47.354;8.528;2023-08-06T07:44:06;18.30;78.40
4578;DHT22;2301;47.354;8.528;2023-08-06T07:46:33;18.20;77.80
4578;DHT22;2301;47.354;8.528;2023-08-06T07:49:00;18.10;78.60
4578;DHT22;2301;47.354;8.528;2023-08-06T07:51:28;18.00;76.20
4578;DHT22;2301;47.354;8.528;2023-08-06T07:53:56;17.70;76.60
4578;DHT22;2301;47.354;8.528;2023-08-06T07:56:23;17.70;78.10
4578;DHT22;2301;47.354;8.528;2023-08-06T07:58:50;17.70;80.00
4578;DHT22;2301;47.354;8.528;2023-08-06T08:01:16;17.70;78.50
4578;DHT22;2301;47.354;8.528;2023-08-06T08:03:43;17.60;78.80
4578;DHT22;2301;47.354;8.528;2023-08-06T08:06:11;17.70;80.00
4578;DHT22;2301;47.354;8.528;2023-08-06T08:08:38;17.60;80.60
4578;DHT22;2301;47.354;8.528;2023-08-06T08:11:06;17.40;80.40
4578;DHT22;2301;47.354;8.528;2023-08-06T08:13:33;17.40;80.60
4578;DHT22;2301;47.354;8.528;2023-08-06T08:16:01;17.40;82.60
4578;DHT22;2301;47.354;8.528;2023-08-06T08:18:28;17.30;82.30
4578;DHT22;2301;47.354;8.528;2023-08-06T08:20:56;17.30;82.00
4578;DHT22;2301;47.354;8.528;2023-08-06T08:23:23;17.60;84.40
4578;DHT22;2301;47.354;8.528;2023-08-06T08:26:09;18.00;86.00
4578;DHT22;2301;47.354;8.528;2023-08-06T08:28:36;18.10;82.70
4578;DHT22;2301;47.354;8.528;2023-08-06T08:31:03;18.00;80.90
4578;DHT22;2301;47.354;8.528;2023-08-06T08:33:30;17.80;79.90
4578;DHT22;2301;47.354;8.528;2023-08-06T08:35:56;17.70;80.00
4578;DHT22;2301;47.354;8.528;2023-08-06T08:38:23;17.50;80.30
4578;DHT22;2301;47.354;8.528;2023-08-06T08:40:52;17.30;80.10
4578;DHT22;2301;47.354;8.528;2023-08-06T08:43:21;17.20;80.70
4578;DHT22;2301;47.354;8.528;2023-08-06T08:45:50;17.20;81.80
4578;DHT22;2301;47.354;8.528;2023-08-06T08:48:18;17.00;81.60
4578;DHT22;2301;47.354;8.528;2023-08-06T08:50:47;17.00;82.60
4578;DHT22;2301;47.354;8.528;2023-08-06T08:53:16;16.90;83.60
4578;DHT22;2301;47.354;8.528;2023-08-06T08:55:46;16.80;82.80
4578;DHT22;2301;47.354;8.528;2023-08-06T08:58:13;16.70;83.10
4578;DHT22;2301;47.354;8.528;2023-08-06T09:00:42;16.70;84.80
4578;DHT22;2301;47.354;8.528;2023-08-06T09:03:11;16.60;85.70
4578;DHT22;2301;47.354;8.528;2023-08-06T09:05:40;16.70;86.30
4578;DHT22;2301;47.354;8.528;2023-08-06T09:08:12;16.70;87.00
4578;DHT22;2301;47.354;8.528;2023-08-06T09:10:43;16.70;87.40
4578;DHT22;2301;47.354;8.528;2023-08-06T09:13:10;16.60;87.00
4578;DHT22;2301;47.354;8.528;2023-08-06T09:15:38;16.70;87.60
4578;DHT22;2301;47.354;8.528;2023-08-06T09:18:11;16.70;88.00
4578;DHT22;2301;47.354;8.528;2023-08-06T09:20:39;16.70;87.60
4578;DHT22;2301;47.354;8.528;2023-08-06T09:23:09;16.60;87.20
4578;DHT22;2301;47.354;8.528;2023-08-06T09:25:38;16.60;87.30
4578;DHT22;2301;47.354;8.528;2023-08-06T09:28:06;16.60;88.30
4578;DHT22;2301;47.354;8.528;2023-08-06T09:30:34;16.60;89.30
4578;DHT22;2301;47.354;8.528;2023-08-06T09:33:02;16.60;89.20
4578;DHT22;2301;47.354;8.528;2023-08-06T09:35:31;16.70;89.30
4578;DHT22;2301;47.354;8.528;2023-08-06T09:38:06;16.80;90.00
4578;DHT22;2301;47.354;8.528;2023-08-06T09:40:34;16.90;89.20
4578;DHT22;2301;47.354;8.528;2023-08-06T09:43:01;17.00;88.90
4578;DHT22;2301;47.354;8.528;2023-08-06T09:45:31;17.10;88.60
4578;DHT22;2301;47.354;8.528;2023-08-06T09:47:59;17.20;88.10
4578;DHT22;2301;47.354;8.528;2023-08-06T09:50:31;17.20;86.30
4578;DHT22;2301;47.354;8.528;2023-08-06T09:52:59;17.40;86.50
4578;DHT22;2301;47.354;8.528;2023-08-06T09:55:27;17.50;87.20
4578;DHT22;2301;47.354;8.528;2023-08-06T09:57:54;17.50;85.60
4578;DHT22;2301;47.354;8.528;2023-08-06T10:00:22;17.50;86.40
4578;DHT22;2301;47.354;8.528;2023-08-06T10:02:49;17.60;86.10
4578;DHT22;2301;47.354;8.528;2023-08-06T10:05:21;17.50;85.80
4578;DHT22;2301;47.354;8.528;2023-08-06T10:07:49;17.40;85.10
4578;DHT22;2301;47.354;8.528;2023-08-06T10:10:17;17.30;85.40
4578;DHT22;2301;47.354;8.528;2023-08-06T10:12:48;17.30;86.80
4578;DHT22;2301;47.354;8.528;2023-08-06T10:15:19;17.20;87.40
4578;DHT22;2301;47.354;8.528;2023-08-06T10:17:50;17.10;85.70
4578;DHT22;2301;47.354;8.528;2023-08-06T10:20:18;17.00;86.30
4578;DHT22;2301;47.354;8.528;2023-08-06T10:22:59;17.00;86.90
4578;DHT22;2301;47.354;8.528;2023-08-06T10:25:30;17.00;87.00
4578;DHT22;2301;47.354;8.528;2023-08-06T10:27:59;17.00;87.30
4578;DHT22;2301;47.354;8.528;2023-08-06T10:30:27;16.90;87.60
4578;DHT22;2301;47.354;8.528;2023-08-06T10:32:56;16.90;87.40
4578;DHT22;2301;47.354;8.528;2023-08-06T10:35:36;16.90;87.20
4578;DHT22;2301;47.354;8.528;2023-08-06T10:38:18;16.80;87.20
4578;DHT22;2301;47.354;8.528;2023-08-06T10:40:49;16.90;87.10
4578;DHT22;2301;47.354;8.528;2023-08-06T10:43:25;16.80;86.00
4578;DHT22;2301;47.354;8.528;2023-08-06T10:45:53;16.80;87.00
4578;DHT22;2301;47.354;8.528;2023-08-06T10:48:29;16.80;87.30
4578;DHT22;2301;47.354;8.528;2023-08-06T10:50:56;16.80;87.10
4578;DHT22;2301;47.354;8.528;2023-08-06T10:53:25;16.80;87.80
4578;DHT22;2301;47.354;8.528;2023-08-06T10:55:52;16.80;88.40
4578;DHT22;2301;47.354;8.528;2023-08-06T10:58:19;16.90;89.40
4578;DHT22;2301;47.354;8.528;2023-08-06T11:00:47;16.80;87.80
4578;DHT22;2301;47.354;8.528;2023-08-06T11:03:18;16.70;86.90
4578;DHT22;2301;47.354;8.528;2023-08-06T11:05:50;16.70;87.80
4578;DHT22;2301;47.354;8.528;2023-08-06T11:08:25;16.80;88.10
4578;DHT22;2301;47.354;8.528;2023-08-06T11:10:52;16.80;87.30
4578;DHT22;2301;47.354;8.528;2023-08-06T11:13:20;16.70;87.10
4578;DHT22;2301;47.354;8.528;2023-08-06T11:15:47;16.80;87.60
4578;DHT22;2301;47.354;8.528;2023-08-06T11:18:14;16.80;86.60
4578;DHT22;2301;47.354;8.528;2023-08-06T11:20:41;16.80;86.90
4578;DHT22;2301;47.354;8.528;2023-08-06T11:23:10;16.80;86.80
4578;DHT22;2301;47.354;8.528;2023-08-06T11:25:44;16.80;85.90
4578;DHT22;2301;47.354;8.528;2023-08-06T11:28:11;16.80;86.50
4578;DHT22;2301;47.354;8.528;2023-08-06T11:30:38;16.70;86.80
4578;DHT22;2301;47.354;8.528;2023-08-06T11:33:07;16.80;87.20
4578;DHT22;2301;47.354;8.528;2023-08-06T11:35:35;16.90;87.60
4578;DHT22;2301;47.354;8.528;2023-08-06T11:38:02;16.90;86.90
4578;DHT22;2301;47.354;8.528;2023-08-06T11:40:29;16.90;86.90
4578;DHT22;2301;47.354;8.528;2023-08-06T11:43:01;17.00;88.10
4578;DHT22;2301;47.354;8.528;2023-08-06T11:45:30;17.00;88.20
4578;DHT22;2301;47.354;8.528;2023-08-06T11:47:59;17.00;87.40
4578;DHT22;2301;47.354;8.528;2023-08-06T11:50:27;17.10;88.10
4578;DHT22;2301;47.354;8.528;2023-08-06T11:52:57;17.10;87.30
4578;DHT22;2301;47.354;8.528;2023-08-06T11:55:26;17.00;87.00
4578;DHT22;2301;47.354;8.528;2023-08-06T11:57:55;17.00;86.80
4578;DHT22;2301;47.354;8.528;2023-08-06T12:00:25;17.00;86.50
4578;DHT22;2301;47.354;8.528;2023-08-06T12:02:53;17.00;86.40
4578;DHT22;2301;47.354;8.528;2023-08-06T12:05:22;17.00;86.80
4578;DHT22;2301;47.354;8.528;2023-08-06T12:07:51;17.00;87.60
4578;DHT22;2301;47.354;8.528;2023-08-06T12:10:19;16.90;86.90
4578;DHT22;2301;47.354;8.528;2023-08-06T12:12:46;16.90;86.50
4578;DHT22;2301;47.354;8.528;2023-08-06T12:15:13;17.00;86.40
4578;DHT22;2301;47.354;8.528;2023-08-06T12:17:41;17.10;86.20
4578;DHT22;2301;47.354;8.528;2023-08-06T12:20:10;17.10;85.70
4578;DHT22;2301;47.354;8.528;2023-08-06T12:22:38;17.00;86.00
4578;DHT22;2301;47.354;8.528;2023-08-06T12:25:07;17.00;85.90
4578;DHT22;2301;47.354;8.528;2023-08-06T12:27:34;17.00;85.00
4578;DHT22;2301;47.354;8.528;2023-08-06T12:30:01;16.90;84.90
4578;DHT22;2301;47.354;8.528;2023-08-06T12:32:29;16.90;84.60
4578;DHT22;2301;47.354;8.528;2023-08-06T12:34:58;16.90;84.50
4578;DHT22;2301;47.354;8.528;2023-08-06T12:37:26;16.90;85.10
4578;DHT22;2301;47.354;8.528;2023-08-06T12:39:52;16.90;85.20
4578;DHT22;2301;47.354;8.528;2023-08-06T12:42:20;16.90;86.00
4578;DHT22;2301;47.354;8.528;2023-08-06T12:44:48;16.80;85.30
4578;DHT22;2301;47.354;8.528;2023-08-06T12:47:15;16.80;86.00
4578;DHT22;2301;47.354;8.528;2023-08-06T12:49:42;16.70;86.40
4578;DHT22;2301;47.354;8.528;2023-08-06T12:52:11;16.60;85.40
4578;DHT22;2301;47.354;8.528;2023-08-06T12:54:40;16.60;86.70
4578;DHT22;2301;47.354;8.528;2023-08-06T12:57:07;16.60;85.70
4578;DHT22;2301;47.354;8.528;2023-08-06T12:59:34;16.60;86.60
4578;DHT22;2301;47.354;8.528;2023-08-06T13:02:02;16.60;86.10
4578;DHT22;2301;47.354;8.528;2023-08-06T13:04:29;16.70;86.70
4578;DHT22;2301;47.354;8.528;2023-08-06T13:06:56;16.70;86.40
4578;DHT22;2301;47.354;8.528;2023-08-06T13:09:24;16.80;86.90
4578;DHT22;2301;47.354;8.528;2023-08-06T13:11:51;16.80;86.00
4578;DHT22;2301;47.354;8.528;2023-08-06T13:14:18;16.80;85.60
4578;DHT22;2301;47.354;8.528;2023-08-06T13:16:46;16.80;85.30
4578;DHT22;2301;47.354;8.528;2023-08-06T13:19:13;16.70;85.00
4578;DHT22;2301;47.354;8.528;2023-08-06T13:21:59;16.70;84.90
4578;DHT22;2301;47.354;8.528;2023-08-06T13:24:27;16.80;85.30
4578;DHT22;2301;47.354;8.528;2023-08-06T13:26:57;16.80;85.50
4578;DHT22;2301;47.354;8.528;2023-08-06T13:29:25;16.90;85.40
4578;DHT22;2301;47.354;8.528;2023-08-06T13:31:52;16.90;85.70
4578;DHT22;2301;47.354;8.528;2023-08-06T13:34:23;17.00;85.70
4578;DHT22;2301;47.354;8.528;2023-08-06T13:36:50;17.00;85.80
4578;DHT22;2301;47.354;8.528;2023-08-06T13:39:17;17.00;84.50
4578;DHT22;2301;47.354;8.528;2023-08-06T13:41:48;17.00;84.10
4578;DHT22;2301;47.354;8.528;2023-08-06T13:44:17;17.10;83.40
4578;DHT22;2301;47.354;8.528;2023-08-06T13:46:47;17.00;82.60
4578;DHT22;2301;47.354;8.528;2023-08-06T13:49:14;17.10;83.40
4578;DHT22;2301;47.354;8.528;2023-08-06T13:51:42;17.10;82.90
4578;DHT22;2301;47.354;8.528;2023-08-06T13:54:10;17.00;82.20
4578;DHT22;2301;47.354;8.528;2023-08-06T13:56:39;17.00;82.10
4578;DHT22;2301;47.354;8.528;2023-08-06T13:59:07;17.00;82.70
4578;DHT22;2301;47.354;8.528;2023-08-06T14:01:38;17.00;83.10
4578;DHT22;2301;47.354;8.528;2023-08-06T14:04:06;17.00;82.80
4578;DHT22;2301;47.354;8.528;2023-08-06T14:06:39;17.00;83.70
4578;DHT22;2301;47.354;8.528;2023-08-06T14:09:06;16.90;84.00
4578;DHT22;2301;47.354;8.528;2023-08-06T14:11:33;17.00;84.70
4578;DHT22;2301;47.354;8.528;2023-08-06T14:14:00;17.00;85.20
4578;DHT22;2301;47.354;8.528;2023-08-06T14:16:29;17.10;85.80
4578;DHT22;2301;47.354;8.528;2023-08-06T14:18:56;17.20;86.60
4578;DHT22;2301;47.354;8.528;2023-08-06T14:21:23;17.20;86.30
4578;DHT22;2301;47.354;8.528;2023-08-06T14:23:50;17.20;85.70
4578;DHT22;2301;47.354;8.528;2023-08-06T14:26:17;17.20;84.70
4578;DHT22;2301;47.354;8.528;2023-08-06T14:28:44;17.20;84.70
4578;DHT22;2301;47.354;8.528;2023-08-06T14:31:11;17.30;84.80
4578;DHT22;2301;47.354;8.528;2023-08-06T14:33:39;17.20;84.00
4578;DHT22;2301;47.354;8.528;2023-08-06T14:36:06;17.20;83.90
4578;DHT22;2301;47.354;8.528;2023-08-06T14:38:33;17.20;82.90
4578;DHT22;2301;47.354;8.528;2023-08-06T14:41:00;17.20;82.80
4578;DHT22;2301;47.354;8.528;2023-08-06T14:43:27;17.20;82.20
4578;DHT22;2301;47.354;8.528;2023-08-06T14:45:54;17.10;81.50
4578;DHT22;2301;47.354;8.528;2023-08-06T14:48:21;17.10;82.10
4578;DHT22;2301;47.354;8.528;2023-08-06T14:50:49;17.10;82.10
4578;DHT22;2301;47.354;8.528;2023-08-06T14:53:16;17.10;81.30
4578;DHT22;2301;47.354;8.528;2023-08-06T14:55:43;17.10;81.90
4578;DHT22;2301;47.354;8.528;2023-08-06T14:58:10;17.10;80.80
4578;DHT22;2301;47.354;8.528;2023-08-06T15:00:37;17.10;80.40
4578;DHT22;2301;47.354;8.528;2023-08-06T15:03:04;17.10;80.10
4578;DHT22;2301;47.354;8.528;2023-08-06T15:05:31;17.10;79.20
4578;DHT22;2301;47.354;8.528;2023-08-06T15:07:59;17.20;79.30
4578;DHT22;2301;47.354;8.528;2023-08-06T15:10:26;17.20;78.90
4578;DHT22;2301;47.354;8.528;2023-08-06T15:12:54;17.20;79.10
4578;DHT22;2301;47.354;8.528;2023-08-06T15:15:22;17.20;78.90
4578;DHT22;2301;47.354;8.528;2023-08-06T15:17:48;17.20;78.20
4578;DHT22;2301;47.354;8.528;2023-08-06T15:20:18;17.20;78.90
4578;DHT22;2301;47.354;8.528;2023-08-06T15:22:45;17.20;78.50
4578;DHT22;2301;47.354;8.528;2023-08-06T15:25:13;17.20;77.90
4578;DHT22;2301;47.354;8.528;2023-08-06T15:27:40;17.20;76.80
4578;DHT22;2301;47.354;8.528;2023-08-06T15:30:08;17.10;77.20
4578;DHT22;2301;47.354;8.528;2023-08-06T15:32:35;17.10;76.80
4578;DHT22;2301;47.354;8.528;2023-08-06T15:35:02;17.10;77.20
4578;DHT22;2301;47.354;8.528;2023-08-06T15:37:31;17.10;77.10
4578;DHT22;2301;47.354;8.528;2023-08-06T15:39:58;17.00;76.50
4578;DHT22;2301;47.354;8.528;2023-08-06T15:42:26;17.00;76.60
4578;DHT22;2301;47.354;8.528;2023-08-06T15:44:53;16.90;76.30
4578;DHT22;2301;47.354;8.528;2023-08-06T15:47:20;17.00;76.40
4578;DHT22;2301;47.354;8.528;2023-08-06T15:49:47;17.00;76.10
4578;DHT22;2301;47.354;8.528;2023-08-06T15:52:15;17.00;75.60
4578;DHT22;2301;47.354;8.528;2023-08-06T15:54:43;17.00;75.60
4578;DHT22;2301;47.354;8.528;2023-08-06T15:57:09;17.00;75.30
4578;DHT22;2301;47.354;8.528;2023-08-06T15:59:38;17.10;75.20
4578;DHT22;2301;47.354;8.528;2023-08-06T16:02:06;17.10;75.20
4578;DHT22;2301;47.354;8.528;2023-08-06T16:04:34;17.20;75.30
4578;DHT22;2301;47.354;8.528;2023-08-06T16:07:04;17.20;74.90